Check out our new PWSWeather beta!
PWSweather.com
Personal Weather Stations
Station Observations
URBANDALE
Westwind Acres And Meredith Hills, Urbandale, IA 50322

Westwind Acres And Meredith HillsUrbandale, IA 50322

Lat: 41.643, Lon: -93.709

Elevation: 928

Station Type:

http://urbandaleweather.com

High Low Average
Temperature 3.0°F-16.1°C -10.8°F-23.8°C -3.6°F-19.8°C
Dew Point -5.3°F-20.7°C -17.3°F-27.4°C -11.2°F-24.0°C
Winds 4.9 mph 7.9 kmh Calm Calm 2.0 mph WNW3.2 kmh WNW
Wind Gusts 17.0 mph27.4 kmh -- 7.0 mph11.3 kmh
Humidity 77% 61% 69%
Pressure 30.49 in1032.5 mb 30.11 in1019.6 mb -
Precipitation 0.00 in0.0 mm - -
Hour Temp Dew Point Humidity Winds Wind Gusts Pressure Precip Precip Rate Daily Precip Total
12:01 AM 0.9°F-17.3°C -5.3°F-20.7°C 75% 4.0 mph NW6.4 kmh NW 11.0 mph17.7 kmh 30.11 in1019.6 mb 0.00 in0.0 mm 0.00 in0.0 mm 0.00 in0.0 mm
12:06 AM 0.7°F-17.4°C -5.4°F-20.8°C 75% 4.0 mph NNW6.4 kmh NNW 10.1 mph16.3 kmh 30.11 in1019.6 mb 0.00 in0.0 mm 0.00 in0.0 mm 0.00 in0.0 mm
12:11 AM 0.5°F-17.5°C -5.6°F-20.9°C 75% 2.9 mph N4.7 kmh N 8.1 mph13.0 kmh 30.12 in1020.0 mb 0.00 in0.0 mm 0.00 in0.0 mm 0.00 in0.0 mm
12:16 AM 0.3°F-17.6°C -5.8°F-21.0°C 75% 2.9 mph NW4.7 kmh NW 10.1 mph16.3 kmh 30.12 in1020.0 mb 0.00 in0.0 mm 0.00 in0.0 mm 0.00 in0.0 mm
12:21 AM -0.2°F-17.9°C -6.5°F-21.4°C 74% 4.0 mph NNW6.4 kmh NNW 13.0 mph20.9 kmh 30.12 in1020.0 mb 0.00 in0.0 mm 0.00 in0.0 mm 0.00 in0.0 mm
12:26 AM -0.6°F-18.1°C -6.9°F-21.6°C 74% 4.0 mph SW6.4 kmh SW 6.9 mph11.1 kmh 30.12 in1020.0 mb 0.00 in0.0 mm 0.00 in0.0 mm 0.00 in0.0 mm
12:31 AM -0.8°F-18.2°C -6.7°F-21.5°C 75% 2.9 mph N4.7 kmh N 6.9 mph11.1 kmh 30.13 in1020.3 mb 0.00 in0.0 mm 0.00 in0.0 mm 0.00 in0.0 mm
12:36 AM -0.9°F-18.3°C -7.2°F-21.8°C 74% 4.0 mph WNW6.4 kmh WNW 11.0 mph17.7 kmh 30.13 in1020.3 mb 0.00 in0.0 mm 0.00 in0.0 mm 0.00 in0.0 mm
12:41 AM -1.5°F-18.6°C -7.8°F-22.1°C 74% 4.9 mph N7.9 kmh N 12.0 mph19.3 kmh 30.13 in1020.3 mb 0.00 in0.0 mm 0.00 in0.0 mm 0.00 in0.0 mm
12:46 AM -1.7°F-18.7°C -8.0°F-22.2°C 74% 4.0 mph NW6.4 kmh NW 6.9 mph11.1 kmh 30.14 in1020.7 mb 0.00 in0.0 mm 0.00 in0.0 mm 0.00 in0.0 mm
12:51 AM -2.0°F-18.9°C -8.3°F-22.4°C 74% 4.0 mph WNW6.4 kmh WNW 8.1 mph13.0 kmh 30.13 in1020.3 mb 0.00 in0.0 mm 0.00 in0.0 mm 0.00 in0.0 mm
12:56 AM -2.6°F-19.2°C -8.9°F-22.7°C 74% 4.0 mph N6.4 kmh N 8.1 mph13.0 kmh 30.14 in1020.7 mb 0.00 in0.0 mm 0.00 in0.0 mm 0.00 in0.0 mm
01:01 AM -2.9°F-19.4°C -8.9°F-22.7°C 75% 2.9 mph W4.7 kmh W 6.9 mph11.1 kmh 30.13 in1020.3 mb 0.00 in0.0 mm 0.00 in0.0 mm 0.00 in0.0 mm
01:06 AM -3.1°F-19.5°C -9.4°F-23.0°C 74% 2.9 mph NW4.7 kmh NW 9.0 mph14.5 kmh 30.13 in1020.3 mb 0.00 in0.0 mm 0.00 in0.0 mm 0.00 in0.0 mm
01:11 AM -3.5°F-19.7°C -9.4°F-23.0°C 75% 2.9 mph NNW4.7 kmh NNW 14.1 mph22.7 kmh 30.13 in1020.3 mb 0.00 in0.0 mm 0.00 in0.0 mm 0.00 in0.0 mm
01:16 AM -3.6°F-19.8°C -9.6°F-23.1°C 75% 2.9 mph N4.7 kmh N 8.1 mph13.0 kmh 30.14 in1020.7 mb 0.00 in0.0 mm 0.00 in0.0 mm 0.00 in0.0 mm
01:21 AM -3.8°F-19.9°C -9.8°F-23.2°C 75% 2.9 mph NW4.7 kmh NW 13.0 mph20.9 kmh 30.14 in1020.7 mb 0.00 in0.0 mm 0.00 in0.0 mm 0.00 in0.0 mm
01:26 AM -4.4°F-20.2°C -10.3°F-23.5°C 75% 4.0 mph N6.4 kmh N 13.0 mph20.9 kmh 30.15 in1021.0 mb 0.00 in0.0 mm 0.00 in0.0 mm 0.00 in0.0 mm
01:31 AM -4.4°F-20.2°C -10.3°F-23.5°C 75% 4.9 mph WNW7.9 kmh WNW 16.1 mph25.9 kmh 30.15 in1021.0 mb 0.00 in0.0 mm 0.00 in0.0 mm 0.00 in0.0 mm
01:36 AM -4.7°F-20.4°C -10.7°F-23.7°C 75% 4.0 mph N6.4 kmh N 14.1 mph22.7 kmh 30.15 in1021.0 mb 0.00 in0.0 mm 0.00 in0.0 mm 0.00 in0.0 mm
01:41 AM -4.7°F-20.4°C -10.8°F-23.8°C 74% 4.0 mph N6.4 kmh N 14.1 mph22.7 kmh 30.15 in1021.0 mb 0.00 in0.0 mm 0.00 in0.0 mm 0.00 in0.0 mm
01:46 AM -4.9°F-20.5°C -10.8°F-23.8°C 75% 4.0 mph N6.4 kmh N 8.9 mph14.3 kmh 30.15 in1021.0 mb 0.00 in0.0 mm 0.00 in0.0 mm 0.00 in0.0 mm
01:51 AM -5.1°F-20.6°C -11.2°F-24.0°C 74% 4.0 mph NW6.4 kmh NW 8.9 mph14.3 kmh 30.16 in1021.3 mb 0.00 in0.0 mm 0.00 in0.0 mm 0.00 in0.0 mm
01:56 AM -5.1°F-20.6°C -11.0°F-23.9°C 75% 4.0 mph NW6.4 kmh NW 8.1 mph13.0 kmh 30.16 in1021.3 mb 0.00 in0.0 mm 0.00 in0.0 mm 0.00 in0.0 mm
02:01 AM -5.3°F-20.7°C -11.2°F-24.0°C 75% 4.0 mph NNW6.4 kmh NNW 12.1 mph19.5 kmh 30.16 in1021.3 mb 0.00 in0.0 mm 0.00 in0.0 mm 0.00 in0.0 mm
02:06 AM -5.4°F-20.8°C -11.6°F-24.2°C 74% 4.0 mph NNW6.4 kmh NNW 10.1 mph16.3 kmh 30.16 in1021.3 mb 0.00 in0.0 mm 0.00 in0.0 mm 0.00 in0.0 mm
02:11 AM -5.6°F-20.9°C -11.7°F-24.3°C 74% 2.9 mph NNW4.7 kmh NNW 12.1 mph19.5 kmh 30.16 in1021.3 mb 0.00 in0.0 mm 0.00 in0.0 mm 0.00 in0.0 mm
02:16 AM -5.6°F-20.9°C -11.6°F-24.2°C 75% 4.0 mph N6.4 kmh N 11.0 mph17.7 kmh 30.16 in1021.3 mb 0.00 in0.0 mm 0.00 in0.0 mm 0.00 in0.0 mm
02:21 AM -5.8°F-21.0°C -11.9°F-24.4°C 74% 4.0 mph NW6.4 kmh NW 11.0 mph17.7 kmh 30.17 in1021.7 mb 0.00 in0.0 mm 0.00 in0.0 mm 0.00 in0.0 mm
02:26 AM -5.8°F-21.0°C -11.9°F-24.4°C 74% 4.0 mph NNE6.4 kmh NNE 8.1 mph13.0 kmh 30.17 in1021.7 mb 0.00 in0.0 mm 0.00 in0.0 mm 0.00 in0.0 mm
02:31 AM -5.8°F-21.0°C -11.7°F-24.3°C 75% 2.9 mph NW4.7 kmh NW 10.1 mph16.3 kmh 30.17 in1021.7 mb 0.00 in0.0 mm 0.00 in0.0 mm 0.00 in0.0 mm
02:36 AM -6.0°F-21.1°C -12.1°F-24.5°C 74% 2.9 mph NW4.7 kmh NW 10.1 mph16.3 kmh 30.17 in1021.7 mb 0.00 in0.0 mm 0.00 in0.0 mm 0.00 in0.0 mm
02:41 AM -6.2°F-21.2°C -12.3°F-24.6°C 74% 4.0 mph NW6.4 kmh NW 10.0 mph16.1 kmh 30.17 in1021.7 mb 0.00 in0.0 mm 0.00 in0.0 mm 0.00 in0.0 mm
02:46 AM -6.2°F-21.2°C -12.3°F-24.6°C 74% 2.9 mph WNW4.7 kmh WNW 10.0 mph16.1 kmh 30.18 in1022.0 mb 0.00 in0.0 mm 0.00 in0.0 mm 0.00 in0.0 mm
02:51 AM -6.2°F-21.2°C -12.3°F-24.6°C 74% 2.9 mph NNW4.7 kmh NNW 8.9 mph14.3 kmh 30.18 in1022.0 mb 0.00 in0.0 mm 0.00 in0.0 mm 0.00 in0.0 mm
02:56 AM -6.5°F-21.4°C -12.6°F-24.8°C 74% 2.9 mph NNW4.7 kmh NNW 6.9 mph11.1 kmh 30.19 in1022.4 mb 0.00 in0.0 mm 0.00 in0.0 mm 0.00 in0.0 mm
03:01 AM -6.5°F-21.4°C -12.6°F-24.8°C 74% 4.0 mph N6.4 kmh N 10.1 mph16.3 kmh 30.18 in1022.0 mb 0.00 in0.0 mm 0.00 in0.0 mm 0.00 in0.0 mm
03:06 AM -6.7°F-21.5°C -12.8°F-24.9°C 74% 4.0 mph N6.4 kmh N 6.9 mph11.1 kmh 30.18 in1022.0 mb 0.00 in0.0 mm 0.00 in0.0 mm 0.00 in0.0 mm
03:11 AM -6.9°F-21.6°C -13.0°F-25.0°C 74% 2.9 mph NW4.7 kmh NW 11.0 mph17.7 kmh 30.19 in1022.4 mb 0.00 in0.0 mm 0.00 in0.0 mm 0.00 in0.0 mm
03:16 AM -7.1°F-21.7°C -13.2°F-25.1°C 74% 4.0 mph WNW6.4 kmh WNW 11.0 mph17.7 kmh 30.19 in1022.4 mb 0.00 in0.0 mm 0.00 in0.0 mm 0.00 in0.0 mm
03:21 AM -7.2°F-21.8°C -13.4°F-25.2°C 74% 4.0 mph WNW6.4 kmh WNW 11.0 mph17.7 kmh 30.19 in1022.4 mb 0.00 in0.0 mm 0.00 in0.0 mm 0.00 in0.0 mm
03:26 AM -7.2°F-21.8°C -13.4°F-25.2°C 74% 4.9 mph N7.9 kmh N 10.1 mph16.3 kmh 30.19 in1022.4 mb 0.00 in0.0 mm 0.00 in0.0 mm 0.00 in0.0 mm
03:31 AM -7.4°F-21.9°C -13.5°F-25.3°C 74% 4.0 mph NNW6.4 kmh NNW 6.9 mph11.1 kmh 30.19 in1022.4 mb 0.00 in0.0 mm 0.00 in0.0 mm 0.00 in0.0 mm
03:36 AM -7.6°F-22.0°C -13.9°F-25.5°C 73% 4.0 mph NW6.4 kmh NW 11.0 mph17.7 kmh 30.19 in1022.4 mb 0.00 in0.0 mm 0.00 in0.0 mm 0.00 in0.0 mm
03:41 AM -7.8°F-22.1°C -13.9°F-25.5°C 74% 4.0 mph NW6.4 kmh NW 8.1 mph13.0 kmh 30.19 in1022.4 mb 0.00 in0.0 mm 0.00 in0.0 mm 0.00 in0.0 mm
03:46 AM -8.0°F-22.2°C -14.3°F-25.7°C 73% 4.0 mph NW6.4 kmh NW 10.1 mph16.3 kmh 30.19 in1022.4 mb 0.00 in0.0 mm 0.00 in0.0 mm 0.00 in0.0 mm
03:51 AM -8.1°F-22.3°C -14.4°F-25.8°C 73% 4.0 mph NNE6.4 kmh NNE 11.0 mph17.7 kmh 30.19 in1022.4 mb 0.00 in0.0 mm 0.00 in0.0 mm 0.00 in0.0 mm
03:56 AM -8.1°F-22.3°C -14.4°F-25.8°C 73% 4.0 mph NNW6.4 kmh NNW 8.1 mph13.0 kmh 30.20 in1022.7 mb 0.00 in0.0 mm 0.00 in0.0 mm 0.00 in0.0 mm
04:01 AM -8.1°F-22.3°C -14.4°F-25.8°C 73% 4.0 mph NNW6.4 kmh NNW 8.9 mph14.3 kmh 30.20 in1022.7 mb 0.00 in0.0 mm 0.00 in0.0 mm 0.00 in0.0 mm
04:06 AM -8.1°F-22.3°C -14.4°F-25.8°C 73% 4.0 mph N6.4 kmh N 14.1 mph22.7 kmh 30.20 in1022.7 mb 0.00 in0.0 mm 0.00 in0.0 mm 0.00 in0.0 mm
04:11 AM -8.1°F-22.3°C -14.3°F-25.7°C 74% 2.9 mph N4.7 kmh N 6.0 mph9.7 kmh 30.20 in1022.7 mb 0.00 in0.0 mm 0.00 in0.0 mm 0.00 in0.0 mm
04:16 AM -8.3°F-22.4°C -14.4°F-25.8°C 74% 2.0 mph NNW3.2 kmh NNW 9.0 mph14.5 kmh 30.21 in1023.0 mb 0.00 in0.0 mm 0.00 in0.0 mm 0.00 in0.0 mm
04:21 AM -8.7°F-22.6°C -14.8°F-26.0°C 74% 2.9 mph NW4.7 kmh NW 12.1 mph19.5 kmh 30.20 in1022.7 mb 0.00 in0.0 mm 0.00 in0.0 mm 0.00 in0.0 mm
04:26 AM -8.7°F-22.6°C -15.0°F-26.1°C 73% 4.0 mph N6.4 kmh N 10.1 mph16.3 kmh 30.20 in1022.7 mb 0.00 in0.0 mm 0.00 in0.0 mm 0.00 in0.0 mm
04:31 AM -8.9°F-22.7°C -15.0°F-26.1°C 74% 4.0 mph NW6.4 kmh NW 8.1 mph13.0 kmh 30.20 in1022.7 mb 0.00 in0.0 mm 0.00 in0.0 mm 0.00 in0.0 mm
04:36 AM -8.9°F-22.7°C -15.0°F-26.1°C 74% 4.0 mph NW6.4 kmh NW 14.1 mph22.7 kmh 30.21 in1023.0 mb 0.00 in0.0 mm 0.00 in0.0 mm 0.00 in0.0 mm
04:41 AM -8.9°F-22.7°C -15.2°F-26.2°C 73% 4.0 mph WNW6.4 kmh WNW 8.1 mph13.0 kmh 30.21 in1023.0 mb 0.00 in0.0 mm 0.00 in0.0 mm 0.00 in0.0 mm
04:46 AM -8.9°F-22.7°C -15.2°F-26.2°C 73% 2.9 mph NNE4.7 kmh NNE 8.1 mph13.0 kmh 30.22 in1023.4 mb 0.00 in0.0 mm 0.00 in0.0 mm 0.00 in0.0 mm
04:51 AM -8.9°F-22.7°C -15.0°F-26.1°C 74% 2.0 mph WNW3.2 kmh WNW 8.1 mph13.0 kmh 30.23 in1023.7 mb 0.00 in0.0 mm 0.00 in0.0 mm 0.00 in0.0 mm
04:56 AM -9.0°F-22.8°C -15.3°F-26.3°C 73% 2.9 mph W4.7 kmh W 8.1 mph13.0 kmh 30.23 in1023.7 mb 0.00 in0.0 mm 0.00 in0.0 mm 0.00 in0.0 mm
05:01 AM -9.0°F-22.8°C -15.3°F-26.3°C 73% 4.0 mph WNW6.4 kmh WNW 10.1 mph16.3 kmh 30.23 in1023.7 mb 0.00 in0.0 mm 0.00 in0.0 mm 0.00 in0.0 mm
05:06 AM -9.0°F-22.8°C -15.3°F-26.3°C 73% 4.0 mph NW6.4 kmh NW 10.1 mph16.3 kmh 30.24 in1024.0 mb 0.00 in0.0 mm 0.00 in0.0 mm 0.00 in0.0 mm
05:11 AM -9.2°F-22.9°C -15.5°F-26.4°C 73% 4.0 mph NW6.4 kmh NW 8.1 mph13.0 kmh 30.24 in1024.0 mb 0.00 in0.0 mm 0.00 in0.0 mm 0.00 in0.0 mm
05:17 AM -9.2°F-22.9°C -15.5°F-26.4°C 73% 2.9 mph N4.7 kmh N 8.1 mph13.0 kmh 30.24 in1024.0 mb 0.00 in0.0 mm 0.00 in0.0 mm 0.00 in0.0 mm
05:22 AM -9.2°F-22.9°C -15.5°F-26.4°C 73% 2.9 mph NW4.7 kmh NW 9.0 mph14.5 kmh 30.24 in1024.0 mb 0.00 in0.0 mm 0.00 in0.0 mm 0.00 in0.0 mm
05:27 AM -9.4°F-23.0°C -15.7°F-26.5°C 73% 4.0 mph N6.4 kmh N 11.0 mph17.7 kmh 30.25 in1024.4 mb 0.00 in0.0 mm 0.00 in0.0 mm 0.00 in0.0 mm
05:32 AM -9.4°F-23.0°C -15.7°F-26.5°C 73% 4.9 mph NNW7.9 kmh NNW 17.0 mph27.4 kmh 30.25 in1024.4 mb 0.00 in0.0 mm 0.00 in0.0 mm 0.00 in0.0 mm
05:37 AM -9.4°F-23.0°C -15.7°F-26.5°C 73% 4.0 mph NW6.4 kmh NW 8.9 mph14.3 kmh 30.25 in1024.4 mb 0.00 in0.0 mm 0.00 in0.0 mm 0.00 in0.0 mm
05:42 AM -9.6°F-23.1°C -15.9°F-26.6°C 73% 4.0 mph WNW6.4 kmh WNW 8.9 mph14.3 kmh 30.25 in1024.4 mb 0.00 in0.0 mm 0.00 in0.0 mm 0.00 in0.0 mm
05:47 AM -9.6°F-23.1°C -15.9°F-26.6°C 73% 4.0 mph N6.4 kmh N 12.1 mph19.5 kmh 30.26 in1024.7 mb 0.00 in0.0 mm 0.00 in0.0 mm 0.00 in0.0 mm
05:52 AM -9.6°F-23.1°C -15.9°F-26.6°C 73% 4.0 mph NW6.4 kmh NW 8.1 mph13.0 kmh 30.26 in1024.7 mb 0.00 in0.0 mm 0.00 in0.0 mm 0.00 in0.0 mm
05:57 AM -9.8°F-23.2°C -16.1°F-26.7°C 73% 4.0 mph NNW6.4 kmh NNW 13.0 mph20.9 kmh 30.26 in1024.7 mb 0.00 in0.0 mm 0.00 in0.0 mm 0.00 in0.0 mm
06:02 AM -9.8°F-23.2°C -16.1°F-26.7°C 73% 4.0 mph N6.4 kmh N 10.1 mph16.3 kmh 30.27 in1025.1 mb 0.00 in0.0 mm 0.00 in0.0 mm 0.00 in0.0 mm
06:07 AM -9.9°F-23.3°C -16.2°F-26.8°C 73% 4.0 mph NNW6.4 kmh NNW 10.1 mph16.3 kmh 30.27 in1025.1 mb 0.00 in0.0 mm 0.00 in0.0 mm 0.00 in0.0 mm
06:12 AM -9.9°F-23.3°C -16.2°F-26.8°C 73% 4.0 mph NW6.4 kmh NW 8.9 mph14.3 kmh 30.27 in1025.1 mb 0.00 in0.0 mm 0.00 in0.0 mm 0.00 in0.0 mm
06:17 AM -10.1°F-23.4°C -16.4°F-26.9°C 73% 4.0 mph WNW6.4 kmh WNW 12.1 mph19.5 kmh 30.27 in1025.1 mb 0.00 in0.0 mm 0.00 in0.0 mm 0.00 in0.0 mm
06:22 AM -10.1°F-23.4°C -16.4°F-26.9°C 73% 4.0 mph NNW6.4 kmh NNW 12.1 mph19.5 kmh 30.28 in1025.4 mb 0.00 in0.0 mm 0.00 in0.0 mm 0.00 in0.0 mm
06:27 AM -10.1°F-23.4°C -16.4°F-26.9°C 73% 4.0 mph NW6.4 kmh NW 12.1 mph19.5 kmh 30.28 in1025.4 mb 0.00 in0.0 mm 0.00 in0.0 mm 0.00 in0.0 mm
06:32 AM -10.3°F-23.5°C -16.6°F-27.0°C 73% 4.0 mph WNW6.4 kmh WNW 11.0 mph17.7 kmh 30.28 in1025.4 mb 0.00 in0.0 mm 0.00 in0.0 mm 0.00 in0.0 mm
06:37 AM -10.3°F-23.5°C -16.6°F-27.0°C 73% 2.9 mph WNW4.7 kmh WNW 8.9 mph14.3 kmh 30.28 in1025.4 mb 0.00 in0.0 mm 0.00 in0.0 mm 0.00 in0.0 mm
06:42 AM -10.5°F-23.6°C -16.8°F-27.1°C 73% 2.9 mph N4.7 kmh N 11.0 mph17.7 kmh 30.29 in1025.7 mb 0.00 in0.0 mm 0.00 in0.0 mm 0.00 in0.0 mm
06:47 AM -10.5°F-23.6°C -16.8°F-27.1°C 73% 4.0 mph W6.4 kmh W 13.0 mph20.9 kmh 30.29 in1025.7 mb 0.00 in0.0 mm 0.00 in0.0 mm 0.00 in0.0 mm
06:52 AM -10.7°F-23.7°C -17.0°F-27.2°C 73% 4.0 mph NW6.4 kmh NW 10.1 mph16.3 kmh 30.29 in1025.7 mb 0.00 in0.0 mm 0.00 in0.0 mm 0.00 in0.0 mm
06:57 AM -10.7°F-23.7°C -17.0°F-27.2°C 73% 4.0 mph N6.4 kmh N 8.9 mph14.3 kmh 30.29 in1025.7 mb 0.00 in0.0 mm 0.00 in0.0 mm 0.00 in0.0 mm
07:02 AM -10.7°F-23.7°C -17.0°F-27.2°C 73% 4.0 mph W6.4 kmh W 15.0 mph24.1 kmh 30.29 in1025.7 mb 0.00 in0.0 mm 0.00 in0.0 mm 0.00 in0.0 mm
07:07 AM -10.8°F-23.8°C -17.3°F-27.4°C 72% 4.0 mph NW6.4 kmh NW 8.1 mph13.0 kmh 30.29 in1025.7 mb 0.00 in0.0 mm 0.00 in0.0 mm 0.00 in0.0 mm
07:12 AM -10.8°F-23.8°C -17.3°F-27.4°C 72% 4.0 mph NW6.4 kmh NW 8.9 mph14.3 kmh 30.30 in1026.1 mb 0.00 in0.0 mm 0.00 in0.0 mm 0.00 in0.0 mm
07:17 AM -10.8°F-23.8°C -17.3°F-27.4°C 72% 4.0 mph NW6.4 kmh NW 12.1 mph19.5 kmh 30.30 in1026.1 mb 0.00 in0.0 mm 0.00 in0.0 mm 0.00 in0.0 mm
07:22 AM -10.8°F-23.8°C -17.3°F-27.4°C 72% 4.0 mph NW6.4 kmh NW 8.1 mph13.0 kmh 30.30 in1026.1 mb 0.00 in0.0 mm 0.00 in0.0 mm 0.00 in0.0 mm
07:27 AM -10.8°F-23.8°C -17.3°F-27.4°C 72% 4.0 mph N6.4 kmh N 8.1 mph13.0 kmh 30.30 in1026.1 mb 0.00 in0.0 mm 0.00 in0.0 mm 0.00 in0.0 mm
07:32 AM -10.8°F-23.8°C -17.1°F-27.3°C 73% 2.9 mph NW4.7 kmh NW 6.9 mph11.1 kmh 30.31 in1026.4 mb 0.00 in0.0 mm 0.00 in0.0 mm 0.00 in0.0 mm
07:37 AM -10.8°F-23.8°C -17.1°F-27.3°C 73% 2.9 mph N4.7 kmh N 11.0 mph17.7 kmh 30.31 in1026.4 mb 0.00 in0.0 mm 0.00 in0.0 mm 0.00 in0.0 mm
07:42 AM -10.8°F-23.8°C -17.1°F-27.3°C 73% 4.0 mph NW6.4 kmh NW 11.0 mph17.7 kmh 30.32 in1026.8 mb 0.00 in0.0 mm 0.00 in0.0 mm 0.00 in0.0 mm
07:47 AM -10.7°F-23.7°C -17.0°F-27.2°C 73% 2.9 mph W4.7 kmh W 11.0 mph17.7 kmh 30.32 in1026.8 mb 0.00 in0.0 mm 0.00 in0.0 mm 0.00 in0.0 mm
07:52 AM -10.5°F-23.6°C -17.0°F-27.2°C 72% 2.0 mph NNW3.2 kmh NNW 8.9 mph14.3 kmh 30.32 in1026.8 mb 0.00 in0.0 mm 0.00 in0.0 mm 0.00 in0.0 mm
07:57 AM -10.5°F-23.6°C -17.0°F-27.2°C 72% 4.0 mph NW6.4 kmh NW 10.1 mph16.3 kmh 30.32 in1026.8 mb 0.00 in0.0 mm 0.00 in0.0 mm 0.00 in0.0 mm
08:02 AM -10.3°F-23.5°C -16.8°F-27.1°C 72% 4.0 mph NW6.4 kmh NW 8.1 mph13.0 kmh 30.32 in1026.8 mb 0.00 in0.0 mm 0.00 in0.0 mm 0.00 in0.0 mm
08:07 AM -10.1°F-23.4°C -16.6°F-27.0°C 72% 2.9 mph NW4.7 kmh NW 8.1 mph13.0 kmh 30.32 in1026.8 mb 0.00 in0.0 mm 0.00 in0.0 mm 0.00 in0.0 mm
08:12 AM -10.1°F-23.4°C -17.0°F-27.2°C 71% 4.0 mph NW6.4 kmh NW 10.1 mph16.3 kmh 30.32 in1026.8 mb 0.00 in0.0 mm 0.00 in0.0 mm 0.00 in0.0 mm
08:17 AM -10.1°F-23.4°C -17.0°F-27.2°C 71% 4.0 mph NW6.4 kmh NW 11.0 mph17.7 kmh 30.33 in1027.1 mb 0.00 in0.0 mm 0.00 in0.0 mm 0.00 in0.0 mm
08:22 AM -9.9°F-23.3°C -16.8°F-27.1°C 71% 4.0 mph W6.4 kmh W 8.1 mph13.0 kmh 30.33 in1027.1 mb 0.00 in0.0 mm 0.00 in0.0 mm 0.00 in0.0 mm
08:27 AM -9.8°F-23.2°C -16.6°F-27.0°C 71% 2.9 mph N4.7 kmh N 6.9 mph11.1 kmh 30.34 in1027.4 mb 0.00 in0.0 mm 0.00 in0.0 mm 0.00 in0.0 mm
08:32 AM -9.6°F-23.1°C -16.6°F-27.0°C 70% 2.9 mph WNW4.7 kmh WNW 13.0 mph20.9 kmh 30.34 in1027.4 mb 0.00 in0.0 mm 0.00 in0.0 mm 0.00 in0.0 mm
08:37 AM -9.4°F-23.0°C -16.4°F-26.9°C 70% 4.0 mph WNW6.4 kmh WNW 13.0 mph20.9 kmh 30.34 in1027.4 mb 0.00 in0.0 mm 0.00 in0.0 mm 0.00 in0.0 mm
08:42 AM -9.4°F-23.0°C -16.4°F-26.9°C 70% 4.0 mph NW6.4 kmh NW 8.9 mph14.3 kmh 30.35 in1027.8 mb 0.00 in0.0 mm 0.00 in0.0 mm 0.00 in0.0 mm
08:47 AM -9.2°F-22.9°C -16.4°F-26.9°C 70% 4.0 mph NW6.4 kmh NW 8.9 mph14.3 kmh 30.35 in1027.8 mb 0.00 in0.0 mm 0.00 in0.0 mm 0.00 in0.0 mm
08:52 AM -8.9°F-22.7°C -16.1°F-26.7°C 70% 4.0 mph NW6.4 kmh NW 6.9 mph11.1 kmh 30.35 in1027.8 mb 0.00 in0.0 mm 0.00 in0.0 mm 0.00 in0.0 mm
08:57 AM -8.7°F-22.6°C -15.9°F-26.6°C 70% 2.9 mph NW4.7 kmh NW 6.9 mph11.1 kmh 30.36 in1028.1 mb 0.00 in0.0 mm 0.00 in0.0 mm 0.00 in0.0 mm
09:02 AM -8.7°F-22.6°C -15.9°F-26.6°C 70% 2.9 mph NNW4.7 kmh NNW 10.1 mph16.3 kmh 30.36 in1028.1 mb 0.00 in0.0 mm 0.00 in0.0 mm 0.00 in0.0 mm
09:07 AM -8.3°F-22.4°C -15.5°F-26.4°C 70% 4.0 mph N6.4 kmh N 8.9 mph14.3 kmh 30.36 in1028.1 mb 0.00 in0.0 mm 0.00 in0.0 mm 0.00 in0.0 mm
09:12 AM -8.1°F-22.3°C -15.3°F-26.3°C 70% 4.0 mph NW6.4 kmh NW 8.1 mph13.0 kmh 30.36 in1028.1 mb 0.00 in0.0 mm 0.00 in0.0 mm 0.00 in0.0 mm
09:17 AM -8.0°F-22.2°C -15.3°F-26.3°C 69% 2.9 mph NW4.7 kmh NW 6.9 mph11.1 kmh 30.36 in1028.1 mb 0.00 in0.0 mm 0.00 in0.0 mm 0.00 in0.0 mm
09:22 AM -7.8°F-22.1°C -15.2°F-26.2°C 69% 4.0 mph NW6.4 kmh NW 8.9 mph14.3 kmh 30.36 in1028.1 mb 0.00 in0.0 mm 0.00 in0.0 mm 0.00 in0.0 mm
09:27 AM -7.8°F-22.1°C -15.2°F-26.2°C 69% 4.0 mph N6.4 kmh N 8.9 mph14.3 kmh 30.36 in1028.1 mb 0.00 in0.0 mm 0.00 in0.0 mm 0.00 in0.0 mm
09:32 AM -7.6°F-22.0°C -15.0°F-26.1°C 69% 4.0 mph NW6.4 kmh NW 6.9 mph11.1 kmh 30.37 in1028.4 mb 0.00 in0.0 mm 0.00 in0.0 mm 0.00 in0.0 mm
09:37 AM -7.4°F-21.9°C -14.8°F-26.0°C 69% 4.0 mph NW6.4 kmh NW 6.9 mph11.1 kmh 30.37 in1028.4 mb 0.00 in0.0 mm 0.00 in0.0 mm 0.00 in0.0 mm
09:42 AM -7.2°F-21.8°C -14.8°F-26.0°C 69% 2.9 mph 4.7 kmh 9.0 mph14.5 kmh 30.37 in1028.4 mb 0.00 in0.0 mm 0.00 in0.0 mm 0.00 in0.0 mm
09:47 AM -6.7°F-21.5°C -14.3°F-25.7°C 69% 2.9 mph NNW4.7 kmh NNW 10.1 mph16.3 kmh 30.38 in1028.8 mb 0.00 in0.0 mm 0.00 in0.0 mm 0.00 in0.0 mm
09:52 AM -6.5°F-21.4°C -14.1°F-25.6°C 69% 2.9 mph WSW4.7 kmh WSW 10.1 mph16.3 kmh 30.38 in1028.8 mb 0.00 in0.0 mm 0.00 in0.0 mm 0.00 in0.0 mm
09:57 AM -6.5°F-21.4°C -14.3°F-25.7°C 68% 2.9 mph WSW4.7 kmh WSW 6.9 mph11.1 kmh 30.38 in1028.8 mb 0.00 in0.0 mm 0.00 in0.0 mm 0.00 in0.0 mm
10:02 AM -6.5°F-21.4°C -14.3°F-25.7°C 68% 4.0 mph NW6.4 kmh NW 10.1 mph16.3 kmh 30.38 in1028.8 mb 0.00 in0.0 mm 0.00 in0.0 mm 0.00 in0.0 mm
10:07 AM -6.3°F-21.3°C -14.1°F-25.6°C 68% 4.0 mph NW6.4 kmh NW 6.9 mph11.1 kmh 30.38 in1028.8 mb 0.00 in0.0 mm 0.00 in0.0 mm 0.00 in0.0 mm
10:12 AM -6.2°F-21.2°C -13.9°F-25.5°C 68% 4.0 mph WNW6.4 kmh WNW 8.1 mph13.0 kmh 30.39 in1029.1 mb 0.00 in0.0 mm 0.00 in0.0 mm 0.00 in0.0 mm
10:17 AM -6.2°F-21.2°C -13.9°F-25.5°C 68% 2.9 mph W4.7 kmh W 6.9 mph11.1 kmh 30.39 in1029.1 mb 0.00 in0.0 mm 0.00 in0.0 mm 0.00 in0.0 mm
10:22 AM -6.2°F-21.2°C -13.9°F-25.5°C 68% 4.0 mph WNW6.4 kmh WNW 10.0 mph16.1 kmh 30.39 in1029.1 mb 0.00 in0.0 mm 0.00 in0.0 mm 0.00 in0.0 mm
10:27 AM -6.2°F-21.2°C -14.3°F-25.7°C 67% 4.0 mph NW6.4 kmh NW 8.1 mph13.0 kmh 30.39 in1029.1 mb 0.00 in0.0 mm 0.00 in0.0 mm 0.00 in0.0 mm
10:32 AM -5.6°F-20.9°C -13.4°F-25.2°C 68% 4.0 mph NNW6.4 kmh NNW 8.9 mph14.3 kmh 30.39 in1029.1 mb 0.00 in0.0 mm 0.00 in0.0 mm 0.00 in0.0 mm
10:37 AM -5.3°F-20.7°C -13.2°F-25.1°C 68% 2.9 mph W4.7 kmh W 6.0 mph9.7 kmh 30.39 in1029.1 mb 0.00 in0.0 mm 0.00 in0.0 mm 0.00 in0.0 mm
10:42 AM -5.3°F-20.7°C -13.4°F-25.2°C 67% 2.9 mph NW4.7 kmh NW 12.1 mph19.5 kmh 30.40 in1029.5 mb 0.00 in0.0 mm 0.00 in0.0 mm 0.00 in0.0 mm
10:47 AM -5.1°F-20.6°C -13.2°F-25.1°C 67% 4.0 mph NNW6.4 kmh NNW 8.9 mph14.3 kmh 30.40 in1029.5 mb 0.00 in0.0 mm 0.00 in0.0 mm 0.00 in0.0 mm
10:52 AM -5.1°F-20.6°C -13.5°F-25.3°C 66% 4.0 mph NW6.4 kmh NW 10.1 mph16.3 kmh 30.40 in1029.5 mb 0.00 in0.0 mm 0.00 in0.0 mm 0.00 in0.0 mm
10:57 AM -4.7°F-20.4°C -12.8°F-24.9°C 67% 4.0 mph NNW6.4 kmh NNW 8.1 mph13.0 kmh 30.40 in1029.5 mb 0.00 in0.0 mm 0.00 in0.0 mm 0.00 in0.0 mm
11:02 AM -4.4°F-20.2°C -12.5°F-24.7°C 67% 2.9 mph NNE4.7 kmh NNE 12.1 mph19.5 kmh 30.41 in1029.8 mb 0.00 in0.0 mm 0.00 in0.0 mm 0.00 in0.0 mm
11:07 AM -4.4°F-20.2°C -12.8°F-24.9°C 66% 2.9 mph W4.7 kmh W 10.1 mph16.3 kmh 30.41 in1029.8 mb 0.00 in0.0 mm 0.00 in0.0 mm 0.00 in0.0 mm
11:12 AM -3.8°F-19.9°C -12.3°F-24.6°C 66% 2.9 mph WNW4.7 kmh WNW 6.0 mph9.7 kmh 30.41 in1029.8 mb 0.00 in0.0 mm 0.00 in0.0 mm 0.00 in0.0 mm
11:17 AM -3.8°F-19.9°C -12.6°F-24.8°C 65% 2.9 mph NW4.7 kmh NW 6.9 mph11.1 kmh 30.41 in1029.8 mb 0.00 in0.0 mm 0.00 in0.0 mm 0.00 in0.0 mm
11:22 AM -3.6°F-19.8°C -12.1°F-24.5°C 66% 2.9 mph W4.7 kmh W 6.9 mph11.1 kmh 30.41 in1029.8 mb 0.00 in0.0 mm 0.00 in0.0 mm 0.00 in0.0 mm
11:27 AM -3.3°F-19.6°C -12.1°F-24.5°C 65% 2.9 mph W4.7 kmh W 8.1 mph13.0 kmh 30.41 in1029.8 mb 0.00 in0.0 mm 0.00 in0.0 mm 0.00 in0.0 mm
11:32 AM -2.9°F-19.4°C -11.7°F-24.3°C 65% 2.9 mph NNW4.7 kmh NNW 13.0 mph20.9 kmh 30.41 in1029.8 mb 0.00 in0.0 mm 0.00 in0.0 mm 0.00 in0.0 mm
11:37 AM -2.7°F-19.3°C -11.6°F-24.2°C 65% 2.9 mph N4.7 kmh N 8.1 mph13.0 kmh 30.41 in1029.8 mb 0.00 in0.0 mm 0.00 in0.0 mm 0.00 in0.0 mm
11:42 AM -2.6°F-19.2°C -11.7°F-24.3°C 64% 4.0 mph NW6.4 kmh NW 9.0 mph14.5 kmh 30.41 in1029.8 mb 0.00 in0.0 mm 0.00 in0.0 mm 0.00 in0.0 mm
11:47 AM -2.4°F-19.1°C -11.6°F-24.2°C 64% 4.0 mph NW6.4 kmh NW 6.9 mph11.1 kmh 30.41 in1029.8 mb 0.00 in0.0 mm 0.00 in0.0 mm 0.00 in0.0 mm
11:52 AM -2.2°F-19.0°C -11.4°F-24.1°C 64% 2.9 mph NNW4.7 kmh NNW 6.9 mph11.1 kmh 30.42 in1030.1 mb 0.00 in0.0 mm 0.00 in0.0 mm 0.00 in0.0 mm
11:57 AM -2.2°F-19.0°C -11.4°F-24.1°C 64% 2.9 mph W4.7 kmh W 9.0 mph14.5 kmh 30.42 in1030.1 mb 0.00 in0.0 mm 0.00 in0.0 mm 0.00 in0.0 mm
12:02 PM -2.2°F-19.0°C -11.4°F-24.1°C 64% 2.9 mph NNW4.7 kmh NNW 6.9 mph11.1 kmh 30.42 in1030.1 mb 0.00 in0.0 mm 0.00 in0.0 mm 0.00 in0.0 mm
12:07 PM -1.8°F-18.8°C -11.0°F-23.9°C 64% 2.9 mph WNW4.7 kmh WNW 8.1 mph13.0 kmh 30.42 in1030.1 mb 0.00 in0.0 mm 0.00 in0.0 mm 0.00 in0.0 mm
12:12 PM -1.7°F-18.7°C -10.5°F-23.6°C 65% 2.9 mph NW4.7 kmh NW 8.1 mph13.0 kmh 30.42 in1030.1 mb 0.00 in0.0 mm 0.00 in0.0 mm 0.00 in0.0 mm
12:17 PM -1.5°F-18.6°C -10.3°F-23.5°C 65% 2.9 mph NW4.7 kmh NW 9.0 mph14.5 kmh 30.42 in1030.1 mb 0.00 in0.0 mm 0.00 in0.0 mm 0.00 in0.0 mm
12:22 PM -1.1°F-18.4°C -10.3°F-23.5°C 64% 2.9 mph N4.7 kmh N 8.9 mph14.3 kmh 30.42 in1030.1 mb 0.00 in0.0 mm 0.00 in0.0 mm 0.00 in0.0 mm
12:27 PM -1.1°F-18.4°C -10.1°F-23.4°C 65% 2.9 mph NW4.7 kmh NW 6.9 mph11.1 kmh 30.42 in1030.1 mb 0.00 in0.0 mm 0.00 in0.0 mm 0.00 in0.0 mm
12:32 PM -0.9°F-18.3°C -9.6°F-23.1°C 66% 2.9 mph WNW4.7 kmh WNW 9.0 mph14.5 kmh 30.41 in1029.8 mb 0.00 in0.0 mm 0.00 in0.0 mm 0.00 in0.0 mm
12:37 PM -0.8°F-18.2°C -9.9°F-23.3°C 64% 2.9 mph NW4.7 kmh NW 8.9 mph14.3 kmh 30.41 in1029.8 mb 0.00 in0.0 mm 0.00 in0.0 mm 0.00 in0.0 mm
12:42 PM -0.6°F-18.1°C -9.8°F-23.2°C 64% 2.9 mph NNW4.7 kmh NNW 6.9 mph11.1 kmh 30.41 in1029.8 mb 0.00 in0.0 mm 0.00 in0.0 mm 0.00 in0.0 mm
12:47 PM -0.6°F-18.1°C -9.8°F-23.2°C 64% 4.0 mph NNW6.4 kmh NNW 8.1 mph13.0 kmh 30.41 in1029.8 mb 0.00 in0.0 mm 0.00 in0.0 mm 0.00 in0.0 mm
12:52 PM -0.4°F-18.0°C -9.6°F-23.1°C 64% 4.0 mph N6.4 kmh N 10.1 mph16.3 kmh 30.41 in1029.8 mb 0.00 in0.0 mm 0.00 in0.0 mm 0.00 in0.0 mm
12:57 PM 0.0°F-17.8°C -9.6°F-23.1°C 63% 2.9 mph NW4.7 kmh NW 11.0 mph17.7 kmh 30.41 in1029.8 mb 0.00 in0.0 mm 0.00 in0.0 mm 0.00 in0.0 mm
01:02 PM 0.1°F-17.7°C -9.4°F-23.0°C 63% 2.0 mph W3.2 kmh W 6.0 mph9.7 kmh 30.41 in1029.8 mb 0.00 in0.0 mm 0.00 in0.0 mm 0.00 in0.0 mm
01:07 PM 0.5°F-17.5°C -9.0°F-22.8°C 63% 2.0 mph WSW3.2 kmh WSW 4.9 mph7.9 kmh 30.41 in1029.8 mb 0.00 in0.0 mm 0.00 in0.0 mm 0.00 in0.0 mm
01:12 PM 0.7°F-17.4°C -9.0°F-22.8°C 63% 2.0 mph NW3.2 kmh NW 8.1 mph13.0 kmh 30.41 in1029.8 mb 0.00 in0.0 mm 0.00 in0.0 mm 0.00 in0.0 mm
01:17 PM 0.7°F-17.4°C -8.7°F-22.6°C 64% 2.0 mph N3.2 kmh N 6.9 mph11.1 kmh 30.41 in1029.8 mb 0.00 in0.0 mm 0.00 in0.0 mm 0.00 in0.0 mm
01:22 PM 0.9°F-17.3°C -8.5°F-22.5°C 64% 2.0 mph NNW3.2 kmh NNW 4.9 mph7.9 kmh 30.41 in1029.8 mb 0.00 in0.0 mm 0.00 in0.0 mm 0.00 in0.0 mm
01:27 PM 0.9°F-17.3°C -8.5°F-22.5°C 64% 2.0 mph W3.2 kmh W 7.0 mph11.3 kmh 30.41 in1029.8 mb 0.00 in0.0 mm 0.00 in0.0 mm 0.00 in0.0 mm
01:32 PM 0.9°F-17.3°C -8.1°F-22.3°C 65% 2.0 mph WSW3.2 kmh WSW 6.0 mph9.7 kmh 30.41 in1029.8 mb 0.00 in0.0 mm 0.00 in0.0 mm 0.00 in0.0 mm
01:37 PM 1.0°F-17.2°C -8.3°F-22.4°C 64% 2.0 mph NW3.2 kmh NW 8.1 mph13.0 kmh 30.41 in1029.8 mb 0.00 in0.0 mm 0.00 in0.0 mm 0.00 in0.0 mm
01:42 PM 1.0°F-17.2°C -8.7°F-22.6°C 63% 2.0 mph NW3.2 kmh NW 6.0 mph9.7 kmh 30.41 in1029.8 mb 0.00 in0.0 mm 0.00 in0.0 mm 0.00 in0.0 mm
01:47 PM 1.4°F-17.0°C -7.6°F-22.0°C 65% 0.9 mph WSW1.4 kmh WSW 4.9 mph7.9 kmh 30.41 in1029.8 mb 0.00 in0.0 mm 0.00 in0.0 mm 0.00 in0.0 mm
01:52 PM 1.4°F-17.0°C -8.0°F-22.2°C 64% 0.9 mph W1.4 kmh W 6.9 mph11.1 kmh 30.41 in1029.8 mb 0.00 in0.0 mm 0.00 in0.0 mm 0.00 in0.0 mm
01:57 PM 1.4°F-17.0°C -8.3°F-22.4°C 63% 2.0 mph WNW3.2 kmh WNW 6.0 mph9.7 kmh 30.41 in1029.8 mb 0.00 in0.0 mm 0.00 in0.0 mm 0.00 in0.0 mm
02:02 PM 1.4°F-17.0°C -8.7°F-22.6°C 62% 2.0 mph NW3.2 kmh NW 11.0 mph17.7 kmh 30.41 in1029.8 mb 0.00 in0.0 mm 0.00 in0.0 mm 0.00 in0.0 mm
02:07 PM 1.6°F-16.9°C -7.8°F-22.1°C 64% 4.0 mph NNE6.4 kmh NNE 12.1 mph19.5 kmh 30.41 in1029.8 mb 0.00 in0.0 mm 0.00 in0.0 mm 0.00 in0.0 mm
02:12 PM 1.6°F-16.9°C -8.1°F-22.3°C 63% 4.0 mph NW6.4 kmh NW 8.1 mph13.0 kmh 30.41 in1029.8 mb 0.00 in0.0 mm 0.00 in0.0 mm 0.00 in0.0 mm
02:17 PM 1.8°F-16.8°C -8.0°F-22.2°C 63% 2.9 mph NW4.7 kmh NW 10.0 mph16.1 kmh 30.41 in1029.8 mb 0.00 in0.0 mm 0.00 in0.0 mm 0.00 in0.0 mm
02:22 PM 1.8°F-16.8°C -8.3°F-22.4°C 62% 2.9 mph N4.7 kmh N 10.0 mph16.1 kmh 30.41 in1029.8 mb 0.00 in0.0 mm 0.00 in0.0 mm 0.00 in0.0 mm
02:27 PM 1.9°F-16.7°C -7.8°F-22.1°C 63% 2.9 mph N4.7 kmh N 6.9 mph11.1 kmh 30.41 in1029.8 mb 0.00 in0.0 mm 0.00 in0.0 mm 0.00 in0.0 mm
02:32 PM 2.1°F-16.6°C -7.6°F-22.0°C 63% 2.9 mph WNW4.7 kmh WNW 10.1 mph16.3 kmh 30.40 in1029.5 mb 0.00 in0.0 mm 0.00 in0.0 mm 0.00 in0.0 mm
02:37 PM 2.1°F-16.6°C -7.6°F-22.0°C 63% 2.0 mph NW3.2 kmh NW 8.9 mph14.3 kmh 30.41 in1029.8 mb 0.00 in0.0 mm 0.00 in0.0 mm 0.00 in0.0 mm
02:42 PM 2.1°F-16.6°C -7.2°F-21.8°C 64% 2.0 mph W3.2 kmh W 8.1 mph13.0 kmh 30.40 in1029.5 mb 0.00 in0.0 mm 0.00 in0.0 mm 0.00 in0.0 mm
02:47 PM 2.1°F-16.6°C -7.6°F-22.0°C 63% 2.9 mph WNW4.7 kmh WNW 6.9 mph11.1 kmh 30.41 in1029.8 mb 0.00 in0.0 mm 0.00 in0.0 mm 0.00 in0.0 mm
02:52 PM 1.9°F-16.7°C -7.8°F-22.1°C 63% 2.9 mph W4.7 kmh W 10.1 mph16.3 kmh 30.40 in1029.5 mb 0.00 in0.0 mm 0.00 in0.0 mm 0.00 in0.0 mm
02:57 PM 2.1°F-16.6°C -7.6°F-22.0°C 63% 2.9 mph NW4.7 kmh NW 6.9 mph11.1 kmh 30.41 in1029.8 mb 0.00 in0.0 mm 0.00 in0.0 mm 0.00 in0.0 mm
03:02 PM 2.5°F-16.4°C -7.2°F-21.8°C 63% 2.0 mph W3.2 kmh W 8.0 mph12.9 kmh 30.41 in1029.8 mb 0.00 in0.0 mm 0.00 in0.0 mm 0.00 in0.0 mm
03:07 PM 2.7°F-16.3°C -7.1°F-21.7°C 63% 2.0 mph SW3.2 kmh SW 4.9 mph7.9 kmh 30.40 in1029.5 mb 0.00 in0.0 mm 0.00 in0.0 mm 0.00 in0.0 mm
03:12 PM 2.7°F-16.3°C -7.1°F-21.7°C 63% 2.0 mph NW3.2 kmh NW 8.9 mph14.3 kmh 30.40 in1029.5 mb 0.00 in0.0 mm 0.00 in0.0 mm 0.00 in0.0 mm
03:17 PM 3.0°F-16.1°C -7.1°F-21.7°C 62% 2.0 mph WSW3.2 kmh WSW 4.9 mph7.9 kmh 30.40 in1029.5 mb 0.00 in0.0 mm 0.00 in0.0 mm 0.00 in0.0 mm
03:22 PM 2.8°F-16.2°C -7.2°F-21.8°C 62% 2.0 mph NW3.2 kmh NW 6.0 mph9.7 kmh 30.40 in1029.5 mb 0.00 in0.0 mm 0.00 in0.0 mm 0.00 in0.0 mm
03:27 PM 2.5°F-16.4°C -8.0°F-22.2°C 61% 2.9 mph NW4.7 kmh NW 10.1 mph16.3 kmh 30.41 in1029.8 mb 0.00 in0.0 mm 0.00 in0.0 mm 0.00 in0.0 mm
03:32 PM 2.7°F-16.3°C -7.1°F-21.7°C 63% 2.0 mph NE3.2 kmh NE 8.9 mph14.3 kmh 30.41 in1029.8 mb 0.00 in0.0 mm 0.00 in0.0 mm 0.00 in0.0 mm
03:37 PM 2.5°F-16.4°C -7.6°F-22.0°C 62% 2.9 mph NW4.7 kmh NW 8.1 mph13.0 kmh 30.41 in1029.8 mb 0.00 in0.0 mm 0.00 in0.0 mm 0.00 in0.0 mm
03:42 PM 2.7°F-16.3°C -7.1°F-21.7°C 63% 2.9 mph NW4.7 kmh NW 6.9 mph11.1 kmh 30.41 in1029.8 mb 0.00 in0.0 mm 0.00 in0.0 mm 0.00 in0.0 mm
03:47 PM 2.8°F-16.2°C -6.9°F-21.6°C 63% 2.0 mph NW3.2 kmh NW 6.9 mph11.1 kmh 30.41 in1029.8 mb 0.00 in0.0 mm 0.00 in0.0 mm 0.00 in0.0 mm
03:52 PM 2.8°F-16.2°C -6.9°F-21.6°C 63% 2.0 mph NW3.2 kmh NW 4.9 mph7.9 kmh 30.41 in1029.8 mb 0.00 in0.0 mm 0.00 in0.0 mm 0.00 in0.0 mm
03:57 PM 2.8°F-16.2°C -7.2°F-21.8°C 62% 2.0 mph WSW3.2 kmh WSW 6.0 mph9.7 kmh 30.41 in1029.8 mb 0.00 in0.0 mm 0.00 in0.0 mm 0.00 in0.0 mm
04:02 PM 2.5°F-16.4°C -7.6°F-22.0°C 62% 2.0 mph NW3.2 kmh NW 8.1 mph13.0 kmh 30.41 in1029.8 mb 0.00 in0.0 mm 0.00 in0.0 mm 0.00 in0.0 mm
04:08 PM 2.3°F-16.5°C -8.1°F-22.3°C 61% 2.0 mph W3.2 kmh W 6.9 mph11.1 kmh 30.41 in1029.8 mb 0.00 in0.0 mm 0.00 in0.0 mm 0.00 in0.0 mm
04:13 PM 2.5°F-16.4°C -8.0°F-22.2°C 61% 2.0 mph N3.2 kmh N 6.9 mph11.1 kmh 30.41 in1029.8 mb 0.00 in0.0 mm 0.00 in0.0 mm 0.00 in0.0 mm
04:18 PM 2.7°F-16.3°C -7.4°F-21.9°C 62% 0.9 mph NW1.4 kmh NW 9.0 mph14.5 kmh 30.41 in1029.8 mb 0.00 in0.0 mm 0.00 in0.0 mm 0.00 in0.0 mm
04:23 PM 2.5°F-16.4°C -7.6°F-22.0°C 62% 2.0 mph NW3.2 kmh NW 6.9 mph11.1 kmh 30.41 in1029.8 mb 0.00 in0.0 mm 0.00 in0.0 mm 0.00 in0.0 mm
04:28 PM 2.5°F-16.4°C -8.0°F-22.2°C 61% 2.0 mph N3.2 kmh N 4.9 mph7.9 kmh 30.42 in1030.1 mb 0.00 in0.0 mm 0.00 in0.0 mm 0.00 in0.0 mm
04:33 PM 2.5°F-16.4°C -8.0°F-22.2°C 61% 2.0 mph NW3.2 kmh NW 8.1 mph13.0 kmh 30.42 in1030.1 mb 0.00 in0.0 mm 0.00 in0.0 mm 0.00 in0.0 mm
04:38 PM 2.5°F-16.4°C -8.0°F-22.2°C 61% 0.9 mph W1.4 kmh W 8.1 mph13.0 kmh 30.42 in1030.1 mb 0.00 in0.0 mm 0.00 in0.0 mm 0.00 in0.0 mm
04:43 PM 2.1°F-16.6°C -8.3°F-22.4°C 61% 0.9 mph WNW1.4 kmh WNW 4.9 mph7.9 kmh 30.41 in1029.8 mb 0.00 in0.0 mm 0.00 in0.0 mm 0.00 in0.0 mm
04:48 PM 2.1°F-16.6°C -8.0°F-22.2°C 62% 0.9 mph W1.4 kmh W 4.9 mph7.9 kmh 30.41 in1029.8 mb 0.00 in0.0 mm 0.00 in0.0 mm 0.00 in0.0 mm
04:53 PM 2.1°F-16.6°C -8.0°F-22.2°C 62% 0.9 mph NW1.4 kmh NW 4.9 mph7.9 kmh 30.41 in1029.8 mb 0.00 in0.0 mm 0.00 in0.0 mm 0.00 in0.0 mm
04:58 PM 1.9°F-16.7°C -8.1°F-22.3°C 62% 0.9 mph NW1.4 kmh NW 4.0 mph6.4 kmh 30.41 in1029.8 mb 0.00 in0.0 mm 0.00 in0.0 mm 0.00 in0.0 mm
05:03 PM 1.8°F-16.8°C -8.3°F-22.4°C 62% 2.0 mph N3.2 kmh N 8.1 mph13.0 kmh 30.41 in1029.8 mb 0.00 in0.0 mm 0.00 in0.0 mm 0.00 in0.0 mm
05:08 PM 1.8°F-16.8°C -8.3°F-22.4°C 62% 2.0 mph NW3.2 kmh NW 6.0 mph9.7 kmh 30.42 in1030.1 mb 0.00 in0.0 mm 0.00 in0.0 mm 0.00 in0.0 mm
05:13 PM 1.9°F-16.7°C -8.1°F-22.3°C 62% 0.9 mph NW1.4 kmh NW 6.9 mph11.1 kmh 30.42 in1030.1 mb 0.00 in0.0 mm 0.00 in0.0 mm 0.00 in0.0 mm
05:18 PM 1.9°F-16.7°C -8.1°F-22.3°C 62% 0.9 mph NNW1.4 kmh NNW 2.9 mph4.7 kmh 30.42 in1030.1 mb 0.00 in0.0 mm 0.00 in0.0 mm 0.00 in0.0 mm
05:23 PM 1.8°F-16.8°C -8.0°F-22.2°C 63% 0.9 mph N1.4 kmh N 2.9 mph4.7 kmh 30.42 in1030.1 mb 0.00 in0.0 mm 0.00 in0.0 mm 0.00 in0.0 mm
05:28 PM 1.8°F-16.8°C -8.0°F-22.2°C 63% Calm Calm 2.9 mph4.7 kmh 30.42 in1030.1 mb 0.00 in0.0 mm 0.00 in0.0 mm 0.00 in0.0 mm
05:33 PM 1.6°F-16.9°C -8.1°F-22.3°C 63% Calm Calm 4.9 mph7.9 kmh 30.42 in1030.1 mb 0.00 in0.0 mm 0.00 in0.0 mm 0.00 in0.0 mm
05:38 PM 1.2°F-17.1°C -8.5°F-22.5°C 63% 0.9 mph NNW1.4 kmh NNW 7.0 mph11.3 kmh 30.43 in1030.5 mb 0.00 in0.0 mm 0.00 in0.0 mm 0.00 in0.0 mm
05:43 PM 1.0°F-17.2°C -8.3°F-22.4°C 64% 0.9 mph N1.4 kmh N 4.0 mph6.4 kmh 30.43 in1030.5 mb 0.00 in0.0 mm 0.00 in0.0 mm 0.00 in0.0 mm
05:48 PM 1.0°F-17.2°C -8.0°F-22.2°C 65% 0.9 mph NW1.4 kmh NW 2.0 mph3.2 kmh 30.43 in1030.5 mb 0.00 in0.0 mm 0.00 in0.0 mm 0.00 in0.0 mm
05:53 PM 1.0°F-17.2°C -8.0°F-22.2°C 65% Calm Calm 4.0 mph6.4 kmh 30.43 in1030.5 mb 0.00 in0.0 mm 0.00 in0.0 mm 0.00 in0.0 mm
05:58 PM 0.9°F-17.3°C -8.1°F-22.3°C 65% 0.9 mph N1.4 kmh N 6.9 mph11.1 kmh 30.44 in1030.8 mb 0.00 in0.0 mm 0.00 in0.0 mm 0.00 in0.0 mm
06:03 PM 0.7°F-17.4°C -8.3°F-22.4°C 65% 0.9 mph NW1.4 kmh NW 2.0 mph3.2 kmh 30.44 in1030.8 mb 0.00 in0.0 mm 0.00 in0.0 mm 0.00 in0.0 mm
06:08 PM 0.7°F-17.4°C -8.3°F-22.4°C 65% Calm Calm 2.0 mph3.2 kmh 30.44 in1030.8 mb 0.00 in0.0 mm 0.00 in0.0 mm 0.00 in0.0 mm
06:13 PM 0.5°F-17.5°C -8.5°F-22.5°C 65% 0.9 mph NW1.4 kmh NW 5.0 mph8.0 kmh 30.44 in1030.8 mb 0.00 in0.0 mm 0.00 in0.0 mm 0.00 in0.0 mm
06:18 PM 0.3°F-17.6°C -8.3°F-22.4°C 66% 0.9 mph NW1.4 kmh NW 2.0 mph3.2 kmh 30.44 in1030.8 mb 0.00 in0.0 mm 0.00 in0.0 mm 0.00 in0.0 mm
06:23 PM 0.3°F-17.6°C -8.3°F-22.4°C 66% 0.9 mph NW1.4 kmh NW 6.0 mph9.7 kmh 30.44 in1030.8 mb 0.00 in0.0 mm 0.00 in0.0 mm 0.00 in0.0 mm
06:28 PM 0.1°F-17.7°C -8.5°F-22.5°C 66% 0.9 mph NNW1.4 kmh NNW 4.0 mph6.4 kmh 30.44 in1030.8 mb 0.00 in0.0 mm 0.00 in0.0 mm 0.00 in0.0 mm
06:33 PM 0.1°F-17.7°C -8.5°F-22.5°C 66% 0.9 mph N1.4 kmh N 4.0 mph6.4 kmh 30.44 in1030.8 mb 0.00 in0.0 mm 0.00 in0.0 mm 0.00 in0.0 mm
06:38 PM 0.0°F-17.8°C -8.7°F-22.6°C 66% 0.9 mph NW1.4 kmh NW 5.0 mph8.0 kmh 30.44 in1030.8 mb 0.00 in0.0 mm 0.00 in0.0 mm 0.00 in0.0 mm
06:43 PM 0.0°F-17.8°C -8.7°F-22.6°C 66% 0.9 mph NW1.4 kmh NW 4.0 mph6.4 kmh 30.45 in1031.2 mb 0.00 in0.0 mm 0.00 in0.0 mm 0.00 in0.0 mm
06:48 PM -0.2°F-17.9°C -8.5°F-22.5°C 67% Calm Calm 0.9 mph1.4 kmh 30.45 in1031.2 mb 0.00 in0.0 mm 0.00 in0.0 mm 0.00 in0.0 mm
06:53 PM -0.2°F-17.9°C -8.5°F-22.5°C 67% Calm Calm 2.9 mph4.7 kmh 30.45 in1031.2 mb 0.00 in0.0 mm 0.00 in0.0 mm 0.00 in0.0 mm
06:58 PM -0.2°F-17.9°C -8.5°F-22.5°C 67% Calm Calm 2.0 mph3.2 kmh 30.45 in1031.2 mb 0.00 in0.0 mm 0.00 in0.0 mm 0.00 in0.0 mm
07:03 PM -0.4°F-18.0°C -9.0°F-22.8°C 66% Calm Calm 0.9 mph1.4 kmh 30.46 in1031.5 mb 0.00 in0.0 mm 0.00 in0.0 mm 0.00 in0.0 mm
07:08 PM -0.6°F-18.1°C -8.9°F-22.7°C 67% Calm Calm 0.9 mph1.4 kmh 30.45 in1031.2 mb 0.00 in0.0 mm 0.00 in0.0 mm 0.00 in0.0 mm
07:13 PM -0.6°F-18.1°C -9.2°F-22.9°C 66% Calm Calm 0.9 mph1.4 kmh 30.46 in1031.5 mb 0.00 in0.0 mm 0.00 in0.0 mm 0.00 in0.0 mm
07:18 PM -0.6°F-18.1°C -8.9°F-22.7°C 67% Calm Calm 3.0 mph4.8 kmh 30.46 in1031.5 mb 0.00 in0.0 mm 0.00 in0.0 mm 0.00 in0.0 mm
07:23 PM -0.8°F-18.2°C -9.0°F-22.8°C 67% Calm Calm 0.9 mph1.4 kmh 30.46 in1031.5 mb 0.00 in0.0 mm 0.00 in0.0 mm 0.00 in0.0 mm
07:28 PM -0.8°F-18.2°C -9.0°F-22.8°C 67% Calm Calm 0.9 mph1.4 kmh 30.46 in1031.5 mb 0.00 in0.0 mm 0.00 in0.0 mm 0.00 in0.0 mm
07:33 PM -0.8°F-18.2°C -9.0°F-22.8°C 67% Calm Calm 2.0 mph3.2 kmh 30.46 in1031.5 mb 0.00 in0.0 mm 0.00 in0.0 mm 0.00 in0.0 mm
07:38 PM -0.9°F-18.3°C -9.2°F-22.9°C 67% Calm Calm 2.0 mph3.2 kmh 30.46 in1031.5 mb 0.00 in0.0 mm 0.00 in0.0 mm 0.00 in0.0 mm
07:43 PM -0.9°F-18.3°C -9.2°F-22.9°C 67% Calm Calm 0.9 mph1.4 kmh 30.46 in1031.5 mb 0.00 in0.0 mm 0.00 in0.0 mm 0.00 in0.0 mm
07:48 PM -0.9°F-18.3°C -9.2°F-22.9°C 67% Calm Calm 2.0 mph3.2 kmh 30.46 in1031.5 mb 0.00 in0.0 mm 0.00 in0.0 mm 0.00 in0.0 mm
07:53 PM -1.1°F-18.4°C -9.4°F-23.0°C 67% Calm Calm 0.9 mph1.4 kmh 30.46 in1031.5 mb 0.00 in0.0 mm 0.00 in0.0 mm 0.00 in0.0 mm
07:58 PM -1.1°F-18.4°C -9.4°F-23.0°C 67% Calm Calm -- 30.46 in1031.5 mb 0.00 in0.0 mm 0.00 in0.0 mm 0.00 in0.0 mm
08:03 PM -1.1°F-18.4°C -9.0°F-22.8°C 68% Calm Calm 1.0 mph1.6 kmh 30.46 in1031.5 mb 0.00 in0.0 mm 0.00 in0.0 mm 0.00 in0.0 mm
08:08 PM -1.3°F-18.5°C -9.6°F-23.1°C 67% Calm Calm 2.0 mph3.2 kmh 30.46 in1031.5 mb 0.00 in0.0 mm 0.00 in0.0 mm 0.00 in0.0 mm
08:13 PM -1.5°F-18.6°C -9.4°F-23.0°C 68% Calm Calm 0.9 mph1.4 kmh 30.46 in1031.5 mb 0.00 in0.0 mm 0.00 in0.0 mm 0.00 in0.0 mm
08:18 PM -1.5°F-18.6°C -9.4°F-23.0°C 68% Calm Calm -- 30.46 in1031.5 mb 0.00 in0.0 mm 0.00 in0.0 mm 0.00 in0.0 mm
08:23 PM -1.5°F-18.6°C -9.4°F-23.0°C 68% Calm Calm -- 30.47 in1031.8 mb 0.00 in0.0 mm 0.00 in0.0 mm 0.00 in0.0 mm
08:29 PM -1.7°F-18.7°C -9.4°F-23.0°C 69% Calm Calm -- 30.46 in1031.5 mb 0.00 in0.0 mm 0.00 in0.0 mm 0.00 in0.0 mm
08:34 PM -1.7°F-18.7°C -9.4°F-23.0°C 69% Calm Calm 1.0 mph1.6 kmh 30.47 in1031.8 mb 0.00 in0.0 mm 0.00 in0.0 mm 0.00 in0.0 mm
08:39 PM -1.7°F-18.7°C -9.4°F-23.0°C 69% Calm Calm 0.9 mph1.4 kmh 30.47 in1031.8 mb 0.00 in0.0 mm 0.00 in0.0 mm 0.00 in0.0 mm
08:44 PM -1.7°F-18.7°C -9.4°F-23.0°C 69% Calm Calm -- 30.47 in1031.8 mb 0.00 in0.0 mm 0.00 in0.0 mm 0.00 in0.0 mm
08:49 PM -1.8°F-18.8°C -9.6°F-23.1°C 69% Calm Calm -- 30.47 in1031.8 mb 0.00 in0.0 mm 0.00 in0.0 mm 0.00 in0.0 mm
08:54 PM -1.8°F-18.8°C -9.6°F-23.1°C 69% Calm Calm -- 30.46 in1031.5 mb 0.00 in0.0 mm 0.00 in0.0 mm 0.00 in0.0 mm
08:59 PM -1.8°F-18.8°C -9.6°F-23.1°C 69% Calm Calm -- 30.46 in1031.5 mb 0.00 in0.0 mm 0.00 in0.0 mm 0.00 in0.0 mm
09:04 PM -2.0°F-18.9°C -9.4°F-23.0°C 70% Calm Calm -- 30.46 in1031.5 mb 0.00 in0.0 mm 0.00 in0.0 mm 0.00 in0.0 mm
09:09 PM -2.2°F-19.0°C -9.6°F-23.1°C 70% Calm Calm -- 30.47 in1031.8 mb 0.00 in0.0 mm 0.00 in0.0 mm 0.00 in0.0 mm
09:14 PM -2.4°F-19.1°C -9.8°F-23.2°C 70% Calm Calm -- 30.47 in1031.8 mb 0.00 in0.0 mm 0.00 in0.0 mm 0.00 in0.0 mm
09:19 PM -2.4°F-19.1°C -9.8°F-23.2°C 70% Calm Calm -- 30.47 in1031.8 mb 0.00 in0.0 mm 0.00 in0.0 mm 0.00 in0.0 mm
09:24 PM -2.6°F-19.2°C -9.6°F-23.1°C 71% Calm Calm -- 30.46 in1031.5 mb 0.00 in0.0 mm 0.00 in0.0 mm 0.00 in0.0 mm
09:29 PM -2.6°F-19.2°C -9.6°F-23.1°C 71% Calm Calm -- 30.47 in1031.8 mb 0.00 in0.0 mm 0.00 in0.0 mm 0.00 in0.0 mm
09:34 PM -2.6°F-19.2°C -9.6°F-23.1°C 71% Calm Calm -- 30.47 in1031.8 mb 0.00 in0.0 mm 0.00 in0.0 mm 0.00 in0.0 mm
09:39 PM -2.7°F-19.3°C -9.8°F-23.2°C 71% Calm Calm -- 30.47 in1031.8 mb 0.00 in0.0 mm 0.00 in0.0 mm 0.00 in0.0 mm
09:44 PM -2.7°F-19.3°C -9.6°F-23.1°C 72% Calm Calm -- 30.47 in1031.8 mb 0.00 in0.0 mm 0.00 in0.0 mm 0.00 in0.0 mm
09:49 PM -2.9°F-19.4°C -9.8°F-23.2°C 72% Calm Calm -- 30.47 in1031.8 mb 0.00 in0.0 mm 0.00 in0.0 mm 0.00 in0.0 mm
09:54 PM -2.9°F-19.4°C -9.8°F-23.2°C 72% Calm Calm -- 30.48 in1032.2 mb 0.00 in0.0 mm 0.00 in0.0 mm 0.00 in0.0 mm
09:59 PM -2.9°F-19.4°C -9.4°F-23.0°C 73% Calm Calm -- 30.48 in1032.2 mb 0.00 in0.0 mm 0.00 in0.0 mm 0.00 in0.0 mm
10:04 PM -2.9°F-19.4°C -9.4°F-23.0°C 73% Calm Calm -- 30.48 in1032.2 mb 0.00 in0.0 mm 0.00 in0.0 mm 0.00 in0.0 mm
10:09 PM -3.1°F-19.5°C -9.6°F-23.1°C 73% Calm Calm -- 30.48 in1032.2 mb 0.00 in0.0 mm 0.00 in0.0 mm 0.00 in0.0 mm
10:14 PM -3.3°F-19.6°C -9.8°F-23.2°C 73% Calm Calm -- 30.48 in1032.2 mb 0.00 in0.0 mm 0.00 in0.0 mm 0.00 in0.0 mm
10:19 PM -3.3°F-19.6°C -9.8°F-23.2°C 73% Calm Calm -- 30.48 in1032.2 mb 0.00 in0.0 mm 0.00 in0.0 mm 0.00 in0.0 mm
10:24 PM -3.6°F-19.8°C -10.1°F-23.4°C 73% Calm Calm -- 30.48 in1032.2 mb 0.00 in0.0 mm 0.00 in0.0 mm 0.00 in0.0 mm
10:29 PM -3.8°F-19.9°C -10.3°F-23.5°C 73% Calm Calm -- 30.48 in1032.2 mb 0.00 in0.0 mm 0.00 in0.0 mm 0.00 in0.0 mm
10:34 PM -4.0°F-20.0°C -10.1°F-23.4°C 74% Calm Calm -- 30.48 in1032.2 mb 0.00 in0.0 mm 0.00 in0.0 mm 0.00 in0.0 mm
10:39 PM -3.8°F-19.9°C -9.9°F-23.3°C 74% Calm Calm -- 30.49 in1032.5 mb 0.00 in0.0 mm 0.00 in0.0 mm 0.00 in0.0 mm
10:44 PM -3.8°F-19.9°C -9.9°F-23.3°C 74% Calm Calm -- 30.48 in1032.2 mb 0.00 in0.0 mm 0.00 in0.0 mm 0.00 in0.0 mm
10:49 PM -3.8°F-19.9°C -9.9°F-23.3°C 74% Calm Calm -- 30.48 in1032.2 mb 0.00 in0.0 mm 0.00 in0.0 mm 0.00 in0.0 mm
10:54 PM -3.6°F-19.8°C -9.6°F-23.1°C 75% Calm Calm -- 30.48 in1032.2 mb 0.00 in0.0 mm 0.00 in0.0 mm 0.00 in0.0 mm
10:59 PM -3.6°F-19.8°C -9.6°F-23.1°C 75% Calm Calm -- 30.48 in1032.2 mb 0.00 in0.0 mm 0.00 in0.0 mm 0.00 in0.0 mm
11:04 PM -3.8°F-19.9°C -9.8°F-23.2°C 75% Calm Calm -- 30.48 in1032.2 mb 0.00 in0.0 mm 0.00 in0.0 mm 0.00 in0.0 mm
11:09 PM -4.0°F-20.0°C -9.9°F-23.3°C 75% Calm Calm -- 30.48 in1032.2 mb 0.00 in0.0 mm 0.00 in0.0 mm 0.00 in0.0 mm
11:14 PM -4.0°F-20.0°C -9.6°F-23.1°C 76% Calm Calm -- 30.48 in1032.2 mb 0.00 in0.0 mm 0.00 in0.0 mm 0.00 in0.0 mm
11:19 PM -3.8°F-19.9°C -9.4°F-23.0°C 76% Calm Calm -- 30.48 in1032.2 mb 0.00 in0.0 mm 0.00 in0.0 mm 0.00 in0.0 mm
11:24 PM -3.6°F-19.8°C -9.2°F-22.9°C 76% Calm Calm -- 30.49 in1032.5 mb 0.00 in0.0 mm 0.00 in0.0 mm 0.00 in0.0 mm
11:29 PM -3.6°F-19.8°C -9.2°F-22.9°C 76% Calm Calm -- 30.49 in1032.5 mb 0.00 in0.0 mm 0.00 in0.0 mm 0.00 in0.0 mm
11:34 PM -3.6°F-19.8°C -9.0°F-22.8°C 77% Calm Calm -- 30.49 in1032.5 mb 0.00 in0.0 mm 0.00 in0.0 mm 0.00 in0.0 mm
11:39 PM -3.6°F-19.8°C -9.0°F-22.8°C 77% Calm Calm -- 30.49 in1032.5 mb 0.00 in0.0 mm 0.00 in0.0 mm 0.00 in0.0 mm
11:44 PM -3.6°F-19.8°C -9.0°F-22.8°C 77% Calm Calm -- 30.49 in1032.5 mb 0.00 in0.0 mm 0.00 in0.0 mm 0.00 in0.0 mm
11:49 PM -3.6°F-19.8°C -9.0°F-22.8°C 77% Calm Calm -- 30.49 in1032.5 mb 0.00 in0.0 mm 0.00 in0.0 mm 0.00 in0.0 mm
11:54 PM -3.6°F-19.8°C -9.0°F-22.8°C 77% Calm Calm -- 30.49 in1032.5 mb 0.00 in0.0 mm 0.00 in0.0 mm 0.00 in0.0 mm
11:59 PM -3.6°F-19.8°C -9.0°F-22.8°C 77% Calm Calm -- 30.49 in1032.5 mb 0.00 in0.0 mm 0.00 in0.0 mm 0.00 in0.0 mm